sensor_id;sensor_type;location;lat;lon;timestamp;pressure;altitude;pressure_sealevel;temperature;humidity
12636;BME280;6383;50.830;7.210;2023-05-03T00:00:50;101994.06;;;10.52;54.76
12636;BME280;6383;50.830;7.210;2023-05-03T00:03:19;101989.44;;;10.52;55.07
12636;BME280;6383;50.830;7.210;2023-05-03T00:05:49;101993.50;;;10.50;54.43
12636;BME280;6383;50.830;7.210;2023-05-03T00:08:19;101994.84;;;10.47;54.97
12636;BME280;6383;50.830;7.210;2023-05-03T00:10:48;101989.09;;;10.44;54.64
12636;BME280;6383;50.830;7.210;2023-05-03T00:13:17;101983.66;;;10.44;55.39
12636;BME280;6383;50.830;7.210;2023-05-03T00:15:48;101976.31;;;10.44;54.90
12636;BME280;6383;50.830;7.210;2023-05-03T00:18:18;101982.00;;;10.43;54.65
12636;BME280;6383;50.830;7.210;2023-05-03T00:20:47;101985.25;;;10.40;54.50
12636;BME280;6383;50.830;7.210;2023-05-03T00:23:17;101969.47;;;10.37;55.36
12636;BME280;6383;50.830;7.210;2023-05-03T00:25:46;101974.88;;;10.32;55.42
12636;BME280;6383;50.830;7.210;2023-05-03T00:28:19;101976.47;;;10.22;55.43
12636;BME280;6383;50.830;7.210;2023-05-03T00:30:50;101966.34;;;10.18;56.44
12636;BME280;6383;50.830;7.210;2023-05-03T00:40:08;101971.19;;;10.11;55.98
12636;BME280;6383;50.830;7.210;2023-05-03T00:42:37;101972.78;;;10.02;56.85
12636;BME280;6383;50.830;7.210;2023-05-03T00:45:06;101973.56;;;9.97;56.31
12636;BME280;6383;50.830;7.210;2023-05-03T00:47:37;101972.16;;;9.95;57.16
12636;BME280;6383;50.830;7.210;2023-05-03T00:50:06;101966.97;;;9.88;56.52
12636;BME280;6383;50.830;7.210;2023-05-03T00:52:38;101968.56;;;9.84;56.80
12636;BME280;6383;50.830;7.210;2023-05-03T00:55:10;101971.28;;;9.84;56.77
12636;BME280;6383;50.830;7.210;2023-05-03T00:57:39;101968.81;;;9.82;57.01
12636;BME280;6383;50.830;7.210;2023-05-03T01:00:08;101967.19;;;9.81;57.83
12636;BME280;6383;50.830;7.210;2023-05-03T01:09:35;101977.25;;;9.81;57.55
12636;BME280;6383;50.830;7.210;2023-05-03T01:12:14;101979.44;;;9.79;57.82
12636;BME280;6383;50.830;7.210;2023-05-03T01:14:53;101977.50;;;9.79;57.89
12636;BME280;6383;50.830;7.210;2023-05-03T01:17:27;101981.31;;;9.78;57.28
12636;BME280;6383;50.830;7.210;2023-05-03T01:20:03;101978.59;;;9.78;57.55
12636;BME280;6383;50.830;7.210;2023-05-03T01:22:38;101973.97;;;9.79;58.05
12636;BME280;6383;50.830;7.210;2023-05-03T01:25:13;101973.97;;;9.79;57.46
12636;BME280;6383;50.830;7.210;2023-05-03T01:27:43;101978.59;;;9.78;57.22
12636;BME280;6383;50.830;7.210;2023-05-03T01:30:12;101972.34;;;9.78;57.22
12636;BME280;6383;50.830;7.210;2023-05-03T01:32:49;101973.41;;;9.77;57.56
12636;BME280;6383;50.830;7.210;2023-05-03T01:35:26;101977.47;;;9.74;56.84
12636;BME280;6383;50.830;7.210;2023-05-03T01:37:57;101976.66;;;9.74;56.71
12636;BME280;6383;50.830;7.210;2023-05-03T01:40:30;101977.16;;;9.71;56.80
12636;BME280;6383;50.830;7.210;2023-05-03T01:43:00;101976.28;;;9.65;57.04
12636;BME280;6383;50.830;7.210;2023-05-03T01:45:30;101980.06;;;9.59;56.88
12636;BME280;6383;50.830;7.210;2023-05-03T01:48:00;101981.41;;;9.57;56.30
12636;BME280;6383;50.830;7.210;2023-05-03T01:50:29;101985.44;;;9.54;56.53
12636;BME280;6383;50.830;7.210;2023-05-03T01:52:58;101982.41;;;9.50;56.74
12636;BME280;6383;50.830;7.210;2023-05-03T01:55:28;101985.44;;;9.49;56.59
12636;BME280;6383;50.830;7.210;2023-05-03T01:57:57;101986.75;;;9.46;55.78
12636;BME280;6383;50.830;7.210;2023-05-03T02:00:26;101990.19;;;9.37;56.51
12636;BME280;6383;50.830;7.210;2023-05-03T02:02:55;101991.78;;;9.33;57.16
12636;BME280;6383;50.830;7.210;2023-05-03T02:05:25;101992.63;;;9.33;56.55
12636;BME280;6383;50.830;7.210;2023-05-03T02:07:54;102000.19;;;9.31;56.58
12636;BME280;6383;50.830;7.210;2023-05-03T02:10:23;102003.16;;;9.30;57.31
12636;BME280;6383;50.830;7.210;2023-05-03T02:12:53;102001.53;;;9.29;56.65
12636;BME280;6383;50.830;7.210;2023-05-03T02:15:22;102000.38;;;9.25;56.72
12636;BME280;6383;50.830;7.210;2023-05-03T02:17:51;102005.81;;;9.25;56.79
12636;BME280;6383;50.830;7.210;2023-05-03T02:20:20;102006.66;;;9.25;56.57
12636;BME280;6383;50.830;7.210;2023-05-03T02:22:49;102001.22;;;9.25;56.83
12636;BME280;6383;50.830;7.210;2023-05-03T02:25:19;101998.75;;;9.24;56.28
12636;BME280;6383;50.830;7.210;2023-05-03T02:27:48;102006.31;;;9.22;56.28
12636;BME280;6383;50.830;7.210;2023-05-03T02:30:18;102008.50;;;9.19;56.73
12636;BME280;6383;50.830;7.210;2023-05-03T02:32:47;102009.84;;;9.17;56.36
12636;BME280;6383;50.830;7.210;2023-05-03T02:35:16;102006.22;;;9.11;56.76
12636;BME280;6383;50.830;7.210;2023-05-03T02:37:45;102006.72;;;9.08;56.82
12636;BME280;6383;50.830;7.210;2023-05-03T02:40:15;102008.06;;;9.06;56.73
12636;BME280;6383;50.830;7.210;2023-05-03T02:42:44;102017.81;;;9.02;57.05
12636;BME280;6383;50.830;7.210;2023-05-03T02:45:13;102019.97;;;9.00;56.41
12636;BME280;6383;50.830;7.210;2023-05-03T02:47:44;102021.84;;;8.99;56.62
12636;BME280;6383;50.830;7.210;2023-05-03T02:50:13;102017.25;;;9.00;56.81
12636;BME280;6383;50.830;7.210;2023-05-03T02:52:42;102018.31;;;8.99;57.06
12636;BME280;6383;50.830;7.210;2023-05-03T02:55:11;102025.38;;;9.00;57.42
12636;BME280;6383;50.830;7.210;2023-05-03T02:57:40;102011.25;;;8.98;57.19
12636;BME280;6383;50.830;7.210;2023-05-03T03:00:10;102016.09;;;8.96;57.07
12636;BME280;6383;50.830;7.210;2023-05-03T03:02:41;102019.31;;;8.93;56.25
12636;BME280;6383;50.830;7.210;2023-05-03T03:05:12;102015.25;;;8.90;56.88
12636;BME280;6383;50.830;7.210;2023-05-03T03:07:41;102018.75;;;8.91;56.50
12636;BME280;6383;50.830;7.210;2023-05-03T03:10:10;102004.38;;;8.90;56.68
12636;BME280;6383;50.830;7.210;2023-05-03T03:12:38;102004.31;;;8.85;56.16
12636;BME280;6383;50.830;7.210;2023-05-03T03:15:07;102007.78;;;8.80;57.38
12636;BME280;6383;50.830;7.210;2023-05-03T03:17:36;102010.50;;;8.80;57.47
12636;BME280;6383;50.830;7.210;2023-05-03T03:20:07;102007.44;;;8.77;57.35
12636;BME280;6383;50.830;7.210;2023-05-03T03:22:37;102003.91;;;8.76;57.14
12636;BME280;6383;50.830;7.210;2023-05-03T03:25:07;101994.66;;;8.72;57.28
12636;BME280;6383;50.830;7.210;2023-05-03T03:27:36;102001.97;;;8.72;57.06
12636;BME280;6383;50.830;7.210;2023-05-03T03:30:06;102003.31;;;8.69;56.57
12636;BME280;6383;50.830;7.210;2023-05-03T03:32:36;101995.66;;;8.66;57.80
12636;BME280;6383;50.830;7.210;2023-05-03T03:35:05;101991.78;;;8.62;57.04
12636;BME280;6383;50.830;7.210;2023-05-03T03:37:37;101999.06;;;8.57;57.55
12636;BME280;6383;50.830;7.210;2023-05-03T03:40:07;101999.25;;;8.50;57.07
12636;BME280;6383;50.830;7.210;2023-05-03T03:42:36;101997.31;;;8.45;57.63
12636;BME280;6383;50.830;7.210;2023-05-03T03:45:06;101992.63;;;8.41;58.32
12636;BME280;6383;50.830;7.210;2023-05-03T03:47:35;101994.50;;;8.40;57.39
12636;BME280;6383;50.830;7.210;2023-05-03T03:50:05;101996.91;;;8.37;58.28
12636;BME280;6383;50.830;7.210;2023-05-03T03:52:34;101991.97;;;8.34;57.96
12636;BME280;6383;50.830;7.210;2023-05-03T03:55:05;102003.06;;;8.32;58.32
12636;BME280;6383;50.830;7.210;2023-05-03T03:57:34;102000.03;;;8.29;57.36
12636;BME280;6383;50.830;7.210;2023-05-03T04:00:04;102001.34;;;8.26;58.00
12636;BME280;6383;50.830;7.210;2023-05-03T04:02:36;101988.59;;;8.27;58.00
12636;BME280;6383;50.830;7.210;2023-05-03T04:05:05;101989.66;;;8.26;57.17
12636;BME280;6383;50.830;7.210;2023-05-03T04:07:35;101994.28;;;8.25;57.45
12636;BME280;6383;50.830;7.210;2023-05-03T04:10:06;101985.81;;;8.22;57.92
12636;BME280;6383;50.830;7.210;2023-05-03T04:12:36;101984.97;;;8.21;58.35
12636;BME280;6383;50.830;7.210;2023-05-03T04:15:06;101988.75;;;8.20;57.98
12636;BME280;6383;50.830;7.210;2023-05-03T04:17:36;101987.44;;;8.23;58.35
12636;BME280;6383;50.830;7.210;2023-05-03T04:20:06;101981.78;;;8.24;57.60
12636;BME280;6383;50.830;7.210;2023-05-03T04:22:36;101979.56;;;8.21;57.72
12636;BME280;6383;50.830;7.210;2023-05-03T04:25:10;101982.03;;;8.23;58.23
12636;BME280;6383;50.830;7.210;2023-05-03T04:27:40;101978.72;;;8.21;57.32
12636;BME280;6383;50.830;7.210;2023-05-03T04:30:08;101980.06;;;8.18;58.08
12636;BME280;6383;50.830;7.210;2023-05-03T04:32:38;101986.81;;;8.16;58.12
12636;BME280;6383;50.830;7.210;2023-05-03T04:35:07;101977.53;;;8.11;57.38
12636;BME280;6383;50.830;7.210;2023-05-03T04:37:37;101978.09;;;8.13;57.81
12636;BME280;6383;50.830;7.210;2023-05-03T04:40:07;101962.97;;;8.18;57.91
12636;BME280;6383;50.830;7.210;2023-05-03T04:42:37;101965.41;;;8.19;58.56
12636;BME280;6383;50.830;7.210;2023-05-03T04:45:07;101964.34;;;8.20;58.35
12636;BME280;6383;50.830;7.210;2023-05-03T04:47:36;101963.88;;;8.23;57.93
12636;BME280;6383;50.830;7.210;2023-05-03T04:50:07;101967.41;;;8.24;57.69
12636;BME280;6383;50.830;7.210;2023-05-03T04:52:36;101971.50;;;8.26;57.53
12636;BME280;6383;50.830;7.210;2023-05-03T04:55:06;101976.69;;;8.28;58.25
12636;BME280;6383;50.830;7.210;2023-05-03T04:57:38;101978.91;;;8.31;58.79
12636;BME280;6383;50.830;7.210;2023-05-03T05:00:07;101978.91;;;8.31;58.69
12636;BME280;6383;50.830;7.210;2023-05-03T05:02:36;101989.25;;;8.34;58.38
12636;BME280;6383;50.830;7.210;2023-05-03T05:05:06;101991.97;;;8.34;58.81
12636;BME280;6383;50.830;7.210;2023-05-03T05:07:36;101994.75;;;8.39;58.19
12636;BME280;6383;50.830;7.210;2023-05-03T05:10:06;102002.16;;;8.43;57.98
12636;BME280;6383;50.830;7.210;2023-05-03T05:12:35;102008.94;;;8.46;59.01
12636;BME280;6383;50.830;7.210;2023-05-03T05:15:08;102008.69;;;8.47;59.42
12636;BME280;6383;50.830;7.210;2023-05-03T05:17:36;102007.97;;;8.52;58.43
12636;BME280;6383;50.830;7.210;2023-05-03T05:20:06;102013.72;;;8.56;60.01
12636;BME280;6383;50.830;7.210;2023-05-03T05:22:38;102012.16;;;8.60;60.39
12636;BME280;6383;50.830;7.210;2023-05-03T05:25:07;102008.91;;;8.63;59.50
12636;BME280;6383;50.830;7.210;2023-05-03T05:27:36;102012.50;;;8.68;59.38
12636;BME280;6383;50.830;7.210;2023-05-03T05:30:07;102014.72;;;8.71;60.40
12636;BME280;6383;50.830;7.210;2023-05-03T05:32:36;102023.19;;;8.75;59.77
12636;BME280;6383;50.830;7.210;2023-05-03T05:35:06;102024.06;;;8.80;60.13
12636;BME280;6383;50.830;7.210;2023-05-03T05:37:36;102027.91;;;8.84;61.07
12636;BME280;6383;50.830;7.210;2023-05-03T05:40:06;102029.06;;;8.89;59.91
12636;BME280;6383;50.830;7.210;2023-05-03T05:42:35;102024.75;;;8.93;59.82
12636;BME280;6383;50.830;7.210;2023-05-03T05:45:07;102029.19;;;8.99;59.08
12636;BME280;6383;50.830;7.210;2023-05-03T05:47:36;102027.06;;;9.06;58.86
12636;BME280;6383;50.830;7.210;2023-05-03T05:50:06;102029.59;;;9.12;59.06
12636;BME280;6383;50.830;7.210;2023-05-03T05:52:35;102034.84;;;9.19;58.95
12636;BME280;6383;50.830;7.210;2023-05-03T05:55:05;102039.25;;;9.25;58.40
12636;BME280;6383;50.830;7.210;2023-05-03T05:57:34;102039.06;;;9.32;57.37
12636;BME280;6383;50.830;7.210;2023-05-03T06:00:05;102047.81;;;9.39;57.66
12636;BME280;6383;50.830;7.210;2023-05-03T06:02:42;102046.53;;;9.46;57.31
12636;BME280;6383;50.830;7.210;2023-05-03T06:05:11;102051.50;;;9.54;57.55
12636;BME280;6383;50.830;7.210;2023-05-03T06:07:39;102045.63;;;9.63;57.06
12636;BME280;6383;50.830;7.210;2023-05-03T06:10:07;102049.50;;;9.72;57.31
12636;BME280;6383;50.830;7.210;2023-05-03T06:12:36;102048.19;;;9.79;57.15
12636;BME280;6383;50.830;7.210;2023-05-03T06:15:06;102047.16;;;9.85;56.93
12636;BME280;6383;50.830;7.210;2023-05-03T06:17:36;102043.69;;;9.95;57.37
12636;BME280;6383;50.830;7.210;2023-05-03T06:20:07;102046.78;;;10.04;57.02
12636;BME280;6383;50.830;7.210;2023-05-03T06:22:37;102045.19;;;10.13;56.87
12636;BME280;6383;50.830;7.210;2023-05-03T06:25:06;102043.69;;;10.22;57.15
12636;BME280;6383;50.830;7.210;2023-05-03T06:27:36;102039.34;;;10.26;56.39
12636;BME280;6383;50.830;7.210;2023-05-03T06:30:07;102045.38;;;10.33;56.19
12636;BME280;6383;50.830;7.210;2023-05-03T06:32:37;102042.41;;;10.40;56.10
12636;BME280;6383;50.830;7.210;2023-05-03T06:35:08;102046.00;;;10.45;55.88
12636;BME280;6383;50.830;7.210;2023-05-03T06:37:37;102051.75;;;10.54;55.52
12636;BME280;6383;50.830;7.210;2023-05-03T06:40:07;102044.47;;;10.65;55.58
12636;BME280;6383;50.830;7.210;2023-05-03T06:42:36;102050.78;;;10.75;55.55
12636;BME280;6383;50.830;7.210;2023-05-03T06:45:06;102055.72;;;10.83;54.92
12636;BME280;6383;50.830;7.210;2023-05-03T06:47:35;102057.13;;;10.91;55.50
12636;BME280;6383;50.830;7.210;2023-05-03T06:50:08;102060.16;;;11.00;55.25
12636;BME280;6383;50.830;7.210;2023-05-03T06:52:37;102058.56;;;11.09;54.03
12636;BME280;6383;50.830;7.210;2023-05-03T06:55:07;102058.56;;;11.14;53.83
12636;BME280;6383;50.830;7.210;2023-05-03T06:57:36;102053.69;;;11.21;54.37
12636;BME280;6383;50.830;7.210;2023-05-03T07:00:06;102061.63;;;11.27;54.05
12636;BME280;6383;50.830;7.210;2023-05-03T07:02:36;102057.00;;;11.38;53.95
12636;BME280;6383;50.830;7.210;2023-05-03T07:05:05;102055.38;;;11.47;53.08
12636;BME280;6383;50.830;7.210;2023-05-03T07:07:36;102052.97;;;11.56;52.97
12636;BME280;6383;50.830;7.210;2023-05-03T07:10:06;102049.41;;;11.65;52.38
12636;BME280;6383;50.830;7.210;2023-05-03T07:12:35;102045.06;;;11.75;51.68
12636;BME280;6383;50.830;7.210;2023-05-03T07:15:05;102040.75;;;11.84;51.80
12636;BME280;6383;50.830;7.210;2023-05-03T07:17:34;102040.47;;;11.95;51.56
12636;BME280;6383;50.830;7.210;2023-05-03T07:20:04;102044.53;;;12.03;50.24
12636;BME280;6383;50.830;7.210;2023-05-03T07:22:35;102039.38;;;12.12;50.09
12636;BME280;6383;50.830;7.210;2023-05-03T07:25:05;102040.44;;;12.21;48.82
12636;BME280;6383;50.830;7.210;2023-05-03T07:27:34;102035.53;;;12.28;48.31
12636;BME280;6383;50.830;7.210;2023-05-03T07:30:05;102034.13;;;12.35;48.22
12636;BME280;6383;50.830;7.210;2023-05-03T07:32:34;102040.69;;;12.45;47.29
12636;BME280;6383;50.830;7.210;2023-05-03T07:35:04;102039.81;;;12.54;48.18
12636;BME280;6383;50.830;7.210;2023-05-03T07:37:35;102040.88;;;12.63;46.92
12636;BME280;6383;50.830;7.210;2023-05-03T07:40:06;102029.66;;;12.70;46.41
12636;BME280;6383;50.830;7.210;2023-05-03T07:42:36;102024.19;;;12.75;46.08
12636;BME280;6383;50.830;7.210;2023-05-03T07:45:06;102015.69;;;12.82;46.17
12636;BME280;6383;50.830;7.210;2023-05-03T07:47:35;102018.41;;;12.87;45.61
12636;BME280;6383;50.830;7.210;2023-05-03T07:50:06;102011.00;;;12.92;45.59
12636;BME280;6383;50.830;7.210;2023-05-03T07:52:38;102005.50;;;13.02;45.39
12636;BME280;6383;50.830;7.210;2023-05-03T07:55:09;102002.44;;;13.09;44.99
12636;BME280;6383;50.830;7.210;2023-05-03T07:57:38;102007.06;;;13.19;45.75
12636;BME280;6383;50.830;7.210;2023-05-03T08:00:08;101999.06;;;13.27;44.48
12636;BME280;6383;50.830;7.210;2023-05-03T08:02:39;101996.53;;;13.36;45.61
12636;BME280;6383;50.830;7.210;2023-05-03T08:05:10;101992.69;;;13.42;43.70
12636;BME280;6383;50.830;7.210;2023-05-03T08:07:42;101999.78;;;13.48;43.31
12636;BME280;6383;50.830;7.210;2023-05-03T08:10:12;102000.25;;;13.55;43.85
12636;BME280;6383;50.830;7.210;2023-05-03T08:12:41;102002.09;;;13.65;44.00
12636;BME280;6383;50.830;7.210;2023-05-03T08:15:10;101990.81;;;13.71;43.01
12636;BME280;6383;50.830;7.210;2023-05-03T08:17:40;101989.41;;;13.79;43.35
12636;BME280;6383;50.830;7.210;2023-05-03T08:20:10;101980.31;;;13.84;43.82
12636;BME280;6383;50.830;7.210;2023-05-03T08:22:41;101981.91;;;13.90;43.38
12636;BME280;6383;50.830;7.210;2023-05-03T08:25:12;101988.44;;;13.94;42.60
12636;BME280;6383;50.830;7.210;2023-05-03T08:27:43;101985.88;;;14.02;42.93
12636;BME280;6383;50.830;7.210;2023-05-03T08:30:12;101977.84;;;14.11;44.15
12636;BME280;6383;50.830;7.210;2023-05-03T08:32:41;101987.09;;;14.20;43.93
12636;BME280;6383;50.830;7.210;2023-05-03T08:35:10;101989.16;;;14.28;43.67
12636;BME280;6383;50.830;7.210;2023-05-03T08:37:44;101988.03;;;14.34;43.69
12636;BME280;6383;50.830;7.210;2023-05-03T08:40:13;101982.47;;;14.39;43.49
12636;BME280;6383;50.830;7.210;2023-05-03T08:42:44;101987.94;;;14.44;43.06
12636;BME280;6383;50.830;7.210;2023-05-03T08:45:15;101982.94;;;14.52;42.92
12636;BME280;6383;50.830;7.210;2023-05-03T08:47:44;101980.09;;;14.57;43.00
12636;BME280;6383;50.830;7.210;2023-05-03T08:50:14;101977.91;;;14.59;43.13
12636;BME280;6383;50.830;7.210;2023-05-03T08:52:44;101975.94;;;14.64;42.84
12636;BME280;6383;50.830;7.210;2023-05-03T08:55:13;101968.97;;;14.72;41.93
12636;BME280;6383;50.830;7.210;2023-05-03T08:57:43;101969.44;;;14.79;42.66
12636;BME280;6383;50.830;7.210;2023-05-03T09:00:13;101963.84;;;14.84;42.63
12636;BME280;6383;50.830;7.210;2023-05-03T09:02:42;101969.81;;;14.91;41.30
12636;BME280;6383;50.830;7.210;2023-05-03T09:05:32;101970.56;;;14.97;42.09
12636;BME280;6383;50.830;7.210;2023-05-03T09:08:02;101963.34;;;15.01;40.88
12636;BME280;6383;50.830;7.210;2023-05-03T09:10:30;101967.66;;;15.07;41.48
12636;BME280;6383;50.830;7.210;2023-05-03T09:12:58;101968.44;;;15.12;40.98
12636;BME280;6383;50.830;7.210;2023-05-03T09:15:28;101962.03;;;15.17;40.73
12636;BME280;6383;50.830;7.210;2023-05-03T09:18:11;101960.03;;;15.23;41.04
12636;BME280;6383;50.830;7.210;2023-05-03T09:20:42;101954.47;;;15.28;41.27
12636;BME280;6383;50.830;7.210;2023-05-03T09:23:28;101963.13;;;15.35;40.63
12636;BME280;6383;50.830;7.210;2023-05-03T09:25:58;101955.66;;;15.40;40.64
12636;BME280;6383;50.830;7.210;2023-05-03T09:28:27;101958.28;;;15.45;40.85
12636;BME280;6383;50.830;7.210;2023-05-03T09:31:04;101959.56;;;15.53;40.35
12636;BME280;6383;50.830;7.210;2023-05-03T09:33:34;101954.03;;;15.58;39.77
12636;BME280;6383;50.830;7.210;2023-05-03T09:36:04;101955.03;;;15.62;40.64
12636;BME280;6383;50.830;7.210;2023-05-03T09:38:35;101959.63;;;15.67;40.11
12636;BME280;6383;50.830;7.210;2023-05-03T09:41:04;101957.28;;;15.74;40.94
12636;BME280;6383;50.830;7.210;2023-05-03T09:43:34;101950.31;;;15.81;39.66
12636;BME280;6383;50.830;7.210;2023-05-03T09:46:07;101938.13;;;15.88;38.23
12636;BME280;6383;50.830;7.210;2023-05-03T09:48:37;101939.44;;;15.90;38.50
12636;BME280;6383;50.830;7.210;2023-05-03T09:51:08;101934.06;;;15.99;39.10
12636;BME280;6383;50.830;7.210;2023-05-03T09:53:39;101934.69;;;16.09;39.52
12636;BME280;6383;50.830;7.210;2023-05-03T09:56:09;101942.25;;;16.17;40.16
12636;BME280;6383;50.830;7.210;2023-05-03T09:58:40;101946.00;;;16.21;39.69
12636;BME280;6383;50.830;7.210;2023-05-03T10:01:13;101930.75;;;16.29;39.10
12636;BME280;6383;50.830;7.210;2023-05-03T10:03:43;101923.50;;;16.33;39.48
12636;BME280;6383;50.830;7.210;2023-05-03T10:06:20;101918.72;;;16.39;38.95
12636;BME280;6383;50.830;7.210;2023-05-03T10:08:58;101920.25;;;16.45;38.46
12636;BME280;6383;50.830;7.210;2023-05-03T10:11:28;101919.81;;;16.51;38.27
12636;BME280;6383;50.830;7.210;2023-05-03T10:13:57;101916.97;;;16.56;37.54
12636;BME280;6383;50.830;7.210;2023-05-03T10:16:29;101917.66;;;16.62;39.13
12636;BME280;6383;50.830;7.210;2023-05-03T10:19:03;101920.66;;;16.66;37.96
12636;BME280;6383;50.830;7.210;2023-05-03T10:21:45;101911.19;;;16.72;37.05
12636;BME280;6383;50.830;7.210;2023-05-03T10:24:18;101912.56;;;16.83;38.53
12636;BME280;6383;50.830;7.210;2023-05-03T10:26:49;101909.91;;;16.91;37.89
12636;BME280;6383;50.830;7.210;2023-05-03T10:29:43;101903.97;;;16.98;37.45
12636;BME280;6383;50.830;7.210;2023-05-03T10:32:33;101897.75;;;17.06;36.71
12636;BME280;6383;50.830;7.210;2023-05-03T10:35:06;101885.38;;;17.17;37.54
12636;BME280;6383;50.830;7.210;2023-05-03T10:37:36;101874.72;;;17.24;36.66
12636;BME280;6383;50.830;7.210;2023-05-03T10:40:09;101881.22;;;17.28;36.61
12636;BME280;6383;50.830;7.210;2023-05-03T10:42:42;101881.91;;;17.34;35.44
12636;BME280;6383;50.830;7.210;2023-05-03T10:45:24;101878.09;;;17.44;36.78
12636;BME280;6383;50.830;7.210;2023-05-03T10:48:16;101888.50;;;17.55;36.24
12636;BME280;6383;50.830;7.210;2023-05-03T10:50:47;101877.59;;;17.64;35.69
12636;BME280;6383;50.830;7.210;2023-05-03T10:53:37;101880.38;;;17.73;35.40
12636;BME280;6383;50.830;7.210;2023-05-03T10:56:09;101881.38;;;17.77;36.04
12636;BME280;6383;50.830;7.210;2023-05-03T10:58:41;101867.44;;;17.82;35.93
12636;BME280;6383;50.830;7.210;2023-05-03T11:01:12;101862.94;;;17.86;35.29
12636;BME280;6383;50.830;7.210;2023-05-03T11:03:48;101864.13;;;17.93;36.37
12636;BME280;6383;50.830;7.210;2023-05-03T11:06:28;101858.13;;;18.00;36.18
12636;BME280;6383;50.830;7.210;2023-05-03T11:08:58;101858.31;;;18.04;35.32
12636;BME280;6383;50.830;7.210;2023-05-03T11:11:29;101865.78;;;18.12;34.37
12636;BME280;6383;50.830;7.210;2023-05-03T11:13:58;101845.72;;;18.20;34.30
12636;BME280;6383;50.830;7.210;2023-05-03T11:16:27;101843.78;;;18.20;34.02
12636;BME280;6383;50.830;7.210;2023-05-03T11:18:56;101842.47;;;18.18;34.74
12636;BME280;6383;50.830;7.210;2023-05-03T11:21:25;101837.13;;;18.21;34.47
12636;BME280;6383;50.830;7.210;2023-05-03T11:23:57;101840.41;;;18.32;34.53
12636;BME280;6383;50.830;7.210;2023-05-03T11:26:26;101837.63;;;18.41;34.82
12636;BME280;6383;50.830;7.210;2023-05-03T11:29:14;101833.47;;;18.52;35.13
12636;BME280;6383;50.830;7.210;2023-05-03T11:32:02;101837.88;;;18.61;36.06
12636;BME280;6383;50.830;7.210;2023-05-03T11:34:34;101834.97;;;18.66;35.10
12636;BME280;6383;50.830;7.210;2023-05-03T11:37:11;101836.09;;;18.74;34.51
12636;BME280;6383;50.830;7.210;2023-05-03T11:39:40;101828.47;;;18.80;34.00
12636;BME280;6383;50.830;7.210;2023-05-03T11:42:19;101830.25;;;18.84;34.60
12636;BME280;6383;50.830;7.210;2023-05-03T11:44:55;101835.91;;;18.88;34.22
12636;BME280;6383;50.830;7.210;2023-05-03T11:47:28;101823.44;;;18.90;34.97
12636;BME280;6383;50.830;7.210;2023-05-03T11:49:58;101819.22;;;18.93;33.93
12636;BME280;6383;50.830;7.210;2023-05-03T11:52:40;101820.19;;;18.97;34.13
12636;BME280;6383;50.830;7.210;2023-05-03T11:55:18;101816.09;;;19.03;33.28
12636;BME280;6383;50.830;7.210;2023-05-03T11:57:48;101812.53;;;19.11;32.63
12636;BME280;6383;50.830;7.210;2023-05-03T12:00:26;101806.66;;;19.21;32.51
12636;BME280;6383;50.830;7.210;2023-05-03T12:03:03;101816.53;;;19.31;33.07
12636;BME280;6383;50.830;7.210;2023-05-03T12:05:33;101816.84;;;19.38;32.36
12636;BME280;6383;50.830;7.210;2023-05-03T12:08:11;101800.56;;;19.45;32.54
12636;BME280;6383;50.830;7.210;2023-05-03T12:10:40;101807.09;;;19.49;33.56
12636;BME280;6383;50.830;7.210;2023-05-03T12:13:13;101796.19;;;19.53;32.67
12636;BME280;6383;50.830;7.210;2023-05-03T12:15:58;101798.78;;;19.58;34.21
12636;BME280;6383;50.830;7.210;2023-05-03T12:18:46;101794.09;;;19.58;32.70
12636;BME280;6383;50.830;7.210;2023-05-03T12:21:20;101784.97;;;19.58;32.38
12636;BME280;6383;50.830;7.210;2023-05-03T12:23:53;101775.88;;;19.57;32.30
12636;BME280;6383;50.830;7.210;2023-05-03T12:26:25;101783.03;;;19.58;33.33
12636;BME280;6383;50.830;7.210;2023-05-03T12:28:58;101775.34;;;19.64;33.04
12636;BME280;6383;50.830;7.210;2023-05-03T12:31:30;101770.47;;;19.69;33.30
12636;BME280;6383;50.830;7.210;2023-05-03T12:34:07;101769.59;;;19.78;32.25
12636;BME280;6383;50.830;7.210;2023-05-03T12:36:36;101772.00;;;19.88;32.82
12636;BME280;6383;50.830;7.210;2023-05-03T12:39:15;101764.13;;;19.98;32.81
12636;BME280;6383;50.830;7.210;2023-05-03T12:41:47;101761.16;;;20.03;32.65
12636;BME280;6383;50.830;7.210;2023-05-03T12:44:20;101768.09;;;20.10;32.50
12636;BME280;6383;50.830;7.210;2023-05-03T12:46:55;101761.91;;;20.13;33.05
12636;BME280;6383;50.830;7.210;2023-05-03T12:49:24;101761.59;;;20.14;32.03
12636;BME280;6383;50.830;7.210;2023-05-03T12:52:00;101762.66;;;20.22;31.71
12636;BME280;6383;50.830;7.210;2023-05-03T12:54:32;101753.50;;;20.30;30.67
12636;BME280;6383;50.830;7.210;2023-05-03T12:57:05;101742.72;;;20.37;30.09
12636;BME280;6383;50.830;7.210;2023-05-03T12:59:41;101739.44;;;20.44;31.35
12636;BME280;6383;50.830;7.210;2023-05-03T13:02:26;101738.88;;;20.50;31.09
12636;BME280;6383;50.830;7.210;2023-05-03T13:04:56;101738.00;;;20.58;31.12
12636;BME280;6383;50.830;7.210;2023-05-03T13:07:26;101723.94;;;20.63;31.48
12636;BME280;6383;50.830;7.210;2023-05-03T13:09:56;101731.22;;;20.68;31.29
12636;BME280;6383;50.830;7.210;2023-05-03T13:12:24;101721.44;;;20.70;30.92
12636;BME280;6383;50.830;7.210;2023-05-03T13:14:53;101721.22;;;20.75;30.63
12636;BME280;6383;50.830;7.210;2023-05-03T13:17:23;101714.78;;;20.84;31.21
12636;BME280;6383;50.830;7.210;2023-05-03T13:19:52;101709.38;;;20.87;31.76
12636;BME280;6383;50.830;7.210;2023-05-03T13:22:21;101703.97;;;20.91;31.31
12636;BME280;6383;50.830;7.210;2023-05-03T13:24:49;101694.53;;;20.92;31.40
12636;BME280;6383;50.830;7.210;2023-05-03T13:27:17;101696.59;;;20.95;31.03
12636;BME280;6383;50.830;7.210;2023-05-03T13:29:46;101691.19;;;20.98;31.24
12636;BME280;6383;50.830;7.210;2023-05-03T13:32:15;101681.84;;;21.03;31.17
12636;BME280;6383;50.830;7.210;2023-05-03T13:34:46;101685.19;;;21.08;30.92
12636;BME280;6383;50.830;7.210;2023-05-03T13:37:17;101681.75;;;21.11;29.35
12636;BME280;6383;50.830;7.210;2023-05-03T13:39:46;101684.97;;;21.13;30.07